sensor_id;sensor_type;location;lat;lon;timestamp;temperature;humidity
39079;DHT22;24829;49.208;12.080;2022-10-30T00:00:10;11.80;99.90
39079;DHT22;24829;49.208;12.080;2022-10-30T00:02:36;11.80;99.90
39079;DHT22;24829;49.208;12.080;2022-10-30T00:05:02;11.80;99.90
39079;DHT22;24829;49.208;12.080;2022-10-30T00:07:28;11.80;99.90
39079;DHT22;24829;49.208;12.080;2022-10-30T00:09:53;11.80;99.90
39079;DHT22;24829;49.208;12.080;2022-10-30T00:12:19;11.80;99.90
39079;DHT22;24829;49.208;12.080;2022-10-30T00:14:44;11.80;99.90
39079;DHT22;24829;49.208;12.080;2022-10-30T00:17:10;11.80;99.90
39079;DHT22;24829;49.208;12.080;2022-10-30T00:19:35;11.80;99.90
39079;DHT22;24829;49.208;12.080;2022-10-30T00:22:01;11.80;99.90
39079;DHT22;24829;49.208;12.080;2022-10-30T00:24:28;11.90;99.90
39079;DHT22;24829;49.208;12.080;2022-10-30T00:26:53;11.80;99.90
39079;DHT22;24829;49.208;12.080;2022-10-30T00:29:19;11.80;99.90
39079;DHT22;24829;49.208;12.080;2022-10-30T00:31:47;11.80;99.90
39079;DHT22;24829;49.208;12.080;2022-10-30T00:34:13;11.80;99.90
39079;DHT22;24829;49.208;12.080;2022-10-30T00:36:39;11.90;99.90
39079;DHT22;24829;49.208;12.080;2022-10-30T00:39:05;11.90;99.90
39079;DHT22;24829;49.208;12.080;2022-10-30T00:41:30;11.80;99.90
39079;DHT22;24829;49.208;12.080;2022-10-30T00:43:56;11.80;99.90
39079;DHT22;24829;49.208;12.080;2022-10-30T00:49:05;11.80;99.90
39079;DHT22;24829;49.208;12.080;2022-10-30T00:51:37;11.70;99.90
39079;DHT22;24829;49.208;12.080;2022-10-30T00:54:06;11.70;99.90
39079;DHT22;24829;49.208;12.080;2022-10-30T00:56:32;11.70;99.90
39079;DHT22;24829;49.208;12.080;2022-10-30T00:59:10;11.70;99.90
39079;DHT22;24829;49.208;12.080;2022-10-30T01:01:38;11.70;99.90
39079;DHT22;24829;49.208;12.080;2022-10-30T01:04:05;11.70;99.90
39079;DHT22;24829;49.208;12.080;2022-10-30T01:06:33;11.70;99.90
39079;DHT22;24829;49.208;12.080;2022-10-30T01:09:01;11.70;99.90
39079;DHT22;24829;49.208;12.080;2022-10-30T01:11:27;11.70;99.90
39079;DHT22;24829;49.208;12.080;2022-10-30T01:13:54;11.70;99.90
39079;DHT22;24829;49.208;12.080;2022-10-30T01:22:18;11.60;99.90
39079;DHT22;24829;49.208;12.080;2022-10-30T01:29:54;11.60;99.90
39079;DHT22;24829;49.208;12.080;2022-10-30T01:35:17;11.60;99.90
39079;DHT22;24829;49.208;12.080;2022-10-30T01:40:32;11.60;99.90
39079;DHT22;24829;49.208;12.080;2022-10-30T01:42:58;11.60;99.90
39079;DHT22;24829;49.208;12.080;2022-10-30T01:50:55;11.70;99.90
39079;DHT22;24829;49.208;12.080;2022-10-30T01:53:49;11.70;99.90
39079;DHT22;24829;49.208;12.080;2022-10-30T01:56:42;11.70;99.90
39079;DHT22;24829;49.208;12.080;2022-10-30T01:59:34;11.70;99.90
39079;DHT22;24829;49.208;12.080;2022-10-30T02:02:01;11.70;99.90
39079;DHT22;24829;49.208;12.080;2022-10-30T02:04:27;11.70;99.90
39079;DHT22;24829;49.208;12.080;2022-10-30T02:06:53;11.70;99.90
39079;DHT22;24829;49.208;12.080;2022-10-30T02:09:19;11.70;99.90
39079;DHT22;24829;49.208;12.080;2022-10-30T02:11:46;11.60;99.90
39079;DHT22;24829;49.208;12.080;2022-10-30T02:14:15;11.60;99.90
39079;DHT22;24829;49.208;12.080;2022-10-30T02:16:45;11.60;99.90
39079;DHT22;24829;49.208;12.080;2022-10-30T02:19:12;11.70;99.90
39079;DHT22;24829;49.208;12.080;2022-10-30T02:21:37;11.60;99.90
39079;DHT22;24829;49.208;12.080;2022-10-30T02:24:03;11.60;99.90
39079;DHT22;24829;49.208;12.080;2022-10-30T02:26:29;11.60;99.90
39079;DHT22;24829;49.208;12.080;2022-10-30T02:28:54;11.60;99.90
39079;DHT22;24829;49.208;12.080;2022-10-30T02:31:20;11.60;99.90
39079;DHT22;24829;49.208;12.080;2022-10-30T02:33:46;11.60;99.90
39079;DHT22;24829;49.208;12.080;2022-10-30T02:36:11;11.50;99.90
39079;DHT22;24829;49.208;12.080;2022-10-30T02:38:40;11.50;99.90
39079;DHT22;24829;49.208;12.080;2022-10-30T02:41:05;11.50;99.90
39079;DHT22;24829;49.208;12.080;2022-10-30T02:43:31;11.40;99.90
39079;DHT22;24829;49.208;12.080;2022-10-30T02:45:56;11.40;99.90
39079;DHT22;24829;49.208;12.080;2022-10-30T02:48:22;11.40;99.90
39079;DHT22;24829;49.208;12.080;2022-10-30T02:50:47;11.40;99.90
39079;DHT22;24829;49.208;12.080;2022-10-30T02:53:13;11.40;99.90
39079;DHT22;24829;49.208;12.080;2022-10-30T02:55:38;11.40;99.90
39079;DHT22;24829;49.208;12.080;2022-10-30T02:58:04;11.40;99.90
39079;DHT22;24829;49.208;12.080;2022-10-30T03:00:30;11.40;99.90
39079;DHT22;24829;49.208;12.080;2022-10-30T03:02:55;11.40;99.90
39079;DHT22;24829;49.208;12.080;2022-10-30T03:05:21;11.40;99.90
39079;DHT22;24829;49.208;12.080;2022-10-30T03:07:47;11.40;99.90
39079;DHT22;24829;49.208;12.080;2022-10-30T03:10:14;11.40;99.90
39079;DHT22;24829;49.208;12.080;2022-10-30T03:12:39;11.40;99.90
39079;DHT22;24829;49.208;12.080;2022-10-30T03:15:05;11.40;99.90
39079;DHT22;24829;49.208;12.080;2022-10-30T03:17:31;11.40;99.90
39079;DHT22;24829;49.208;12.080;2022-10-30T03:19:57;11.40;99.90
39079;DHT22;24829;49.208;12.080;2022-10-30T03:22:22;11.40;99.90
39079;DHT22;24829;49.208;12.080;2022-10-30T03:24:48;11.40;99.90
39079;DHT22;24829;49.208;12.080;2022-10-30T03:27:13;11.50;99.90
39079;DHT22;24829;49.208;12.080;2022-10-30T03:29:39;11.50;99.90
39079;DHT22;24829;49.208;12.080;2022-10-30T03:32:11;11.40;99.90
39079;DHT22;24829;49.208;12.080;2022-10-30T03:34:37;11.50;99.90
39079;DHT22;24829;49.208;12.080;2022-10-30T03:37:03;11.50;99.90
39079;DHT22;24829;49.208;12.080;2022-10-30T03:39:29;11.50;99.90
39079;DHT22;24829;49.208;12.080;2022-10-30T03:41:55;11.40;99.90
39079;DHT22;24829;49.208;12.080;2022-10-30T03:44:20;11.50;99.90
39079;DHT22;24829;49.208;12.080;2022-10-30T03:46:46;11.40;99.90
39079;DHT22;24829;49.208;12.080;2022-10-30T03:49:11;11.50;99.90
39079;DHT22;24829;49.208;12.080;2022-10-30T03:51:37;11.40;99.90
39079;DHT22;24829;49.208;12.080;2022-10-30T03:54:02;11.40;99.90
39079;DHT22;24829;49.208;12.080;2022-10-30T03:56:28;11.40;99.90
39079;DHT22;24829;49.208;12.080;2022-10-30T03:58:53;11.40;99.90
39079;DHT22;24829;49.208;12.080;2022-10-30T04:01:19;11.40;99.90
39079;DHT22;24829;49.208;12.080;2022-10-30T04:03:44;11.30;99.90
39079;DHT22;24829;49.208;12.080;2022-10-30T04:06:10;11.30;99.90
39079;DHT22;24829;49.208;12.080;2022-10-30T04:08:36;11.30;99.90
39079;DHT22;24829;49.208;12.080;2022-10-30T04:11:01;11.30;99.90
39079;DHT22;24829;49.208;12.080;2022-10-30T04:13:27;11.20;99.90
39079;DHT22;24829;49.208;12.080;2022-10-30T04:15:53;11.20;99.90
39079;DHT22;24829;49.208;12.080;2022-10-30T04:18:18;11.20;99.90
39079;DHT22;24829;49.208;12.080;2022-10-30T04:20:44;11.20;99.90
39079;DHT22;24829;49.208;12.080;2022-10-30T04:23:16;11.20;99.90
39079;DHT22;24829;49.208;12.080;2022-10-30T04:25:43;11.10;99.90
39079;DHT22;24829;49.208;12.080;2022-10-30T04:28:09;11.00;99.90
39079;DHT22;24829;49.208;12.080;2022-10-30T04:30:35;10.90;99.90
39079;DHT22;24829;49.208;12.080;2022-10-30T04:33:03;10.70;99.90
39079;DHT22;24829;49.208;12.080;2022-10-30T04:35:32;10.60;99.90
39079;DHT22;24829;49.208;12.080;2022-10-30T04:38:00;10.60;99.90
39079;DHT22;24829;49.208;12.080;2022-10-30T04:40:28;10.50;99.90
39079;DHT22;24829;49.208;12.080;2022-10-30T04:42:55;10.40;99.90
39079;DHT22;24829;49.208;12.080;2022-10-30T04:45:20;10.40;99.90
39079;DHT22;24829;49.208;12.080;2022-10-30T04:47:46;10.40;99.90
39079;DHT22;24829;49.208;12.080;2022-10-30T04:50:12;10.50;99.90
39079;DHT22;24829;49.208;12.080;2022-10-30T04:52:38;10.50;99.90
39079;DHT22;24829;49.208;12.080;2022-10-30T04:55:04;10.60;99.90
39079;DHT22;24829;49.208;12.080;2022-10-30T04:57:30;10.60;99.90
39079;DHT22;24829;49.208;12.080;2022-10-30T04:59:57;10.70;99.90
39079;DHT22;24829;49.208;12.080;2022-10-30T05:02:22;10.80;99.90
39079;DHT22;24829;49.208;12.080;2022-10-30T05:04:48;10.80;99.90
39079;DHT22;24829;49.208;12.080;2022-10-30T05:07:14;10.80;99.90
39079;DHT22;24829;49.208;12.080;2022-10-30T05:09:40;10.90;99.90
39079;DHT22;24829;49.208;12.080;2022-10-30T05:12:06;10.90;99.90
39079;DHT22;24829;49.208;12.080;2022-10-30T05:14:32;10.90;99.90
39079;DHT22;24829;49.208;12.080;2022-10-30T05:16:58;10.90;99.90
39079;DHT22;24829;49.208;12.080;2022-10-30T05:19:24;10.90;99.90
39079;DHT22;24829;49.208;12.080;2022-10-30T05:21:49;10.90;99.90
39079;DHT22;24829;49.208;12.080;2022-10-30T05:24:15;10.90;99.90
39079;DHT22;24829;49.208;12.080;2022-10-30T05:26:42;10.90;99.90
39079;DHT22;24829;49.208;12.080;2022-10-30T05:29:11;10.90;99.90
39079;DHT22;24829;49.208;12.080;2022-10-30T05:31:37;10.90;99.90
39079;DHT22;24829;49.208;12.080;2022-10-30T05:34:06;10.90;99.90
39079;DHT22;24829;49.208;12.080;2022-10-30T05:36:32;10.90;99.90
39079;DHT22;24829;49.208;12.080;2022-10-30T05:38:58;10.90;99.90
39079;DHT22;24829;49.208;12.080;2022-10-30T05:41:27;10.90;99.90
39079;DHT22;24829;49.208;12.080;2022-10-30T05:43:55;10.90;99.90
39079;DHT22;24829;49.208;12.080;2022-10-30T05:46:21;10.80;99.90
39079;DHT22;24829;49.208;12.080;2022-10-30T05:48:53;10.80;99.90
39079;DHT22;24829;49.208;12.080;2022-10-30T05:51:19;10.80;99.90
39079;DHT22;24829;49.208;12.080;2022-10-30T05:53:47;10.80;99.90
39079;DHT22;24829;49.208;12.080;2022-10-30T05:56:13;10.80;99.90
39079;DHT22;24829;49.208;12.080;2022-10-30T05:58:39;10.80;99.90
39079;DHT22;24829;49.208;12.080;2022-10-30T06:01:06;10.80;99.90
39079;DHT22;24829;49.208;12.080;2022-10-30T06:03:32;10.80;99.90
39079;DHT22;24829;49.208;12.080;2022-10-30T06:05:58;10.70;99.90
39079;DHT22;24829;49.208;12.080;2022-10-30T06:08:24;10.80;99.90
39079;DHT22;24829;49.208;12.080;2022-10-30T06:10:49;10.70;99.90
39079;DHT22;24829;49.208;12.080;2022-10-30T06:13:15;10.70;99.90
39079;DHT22;24829;49.208;12.080;2022-10-30T06:15:40;10.70;99.90
39079;DHT22;24829;49.208;12.080;2022-10-30T06:18:06;10.70;99.90
39079;DHT22;24829;49.208;12.080;2022-10-30T06:20:32;10.70;99.90
39079;DHT22;24829;49.208;12.080;2022-10-30T06:23:00;10.70;99.90
39079;DHT22;24829;49.208;12.080;2022-10-30T06:25:28;10.70;99.90
39079;DHT22;24829;49.208;12.080;2022-10-30T06:27:53;10.70;99.90
39079;DHT22;24829;49.208;12.080;2022-10-30T06:30:19;10.70;99.90
39079;DHT22;24829;49.208;12.080;2022-10-30T06:32:46;10.60;99.90
39079;DHT22;24829;49.208;12.080;2022-10-30T06:35:11;10.60;99.90
39079;DHT22;24829;49.208;12.080;2022-10-30T06:37:37;10.50;99.90
39079;DHT22;24829;49.208;12.080;2022-10-30T06:40:06;10.40;99.90
39079;DHT22;24829;49.208;12.080;2022-10-30T06:42:32;10.40;99.90
39079;DHT22;24829;49.208;12.080;2022-10-30T06:44:58;10.30;99.90
39079;DHT22;24829;49.208;12.080;2022-10-30T06:47:23;10.40;99.90
39079;DHT22;24829;49.208;12.080;2022-10-30T06:49:49;10.50;99.90
39079;DHT22;24829;49.208;12.080;2022-10-30T06:52:14;10.60;99.90
39079;DHT22;24829;49.208;12.080;2022-10-30T06:54:40;10.70;99.90
39079;DHT22;24829;49.208;12.080;2022-10-30T06:57:05;10.80;99.90
39079;DHT22;24829;49.208;12.080;2022-10-30T06:59:31;10.90;99.90
39079;DHT22;24829;49.208;12.080;2022-10-30T07:01:56;11.10;99.90
39079;DHT22;24829;49.208;12.080;2022-10-30T07:04:28;11.10;99.90
39079;DHT22;24829;49.208;12.080;2022-10-30T07:06:54;11.20;99.90
39079;DHT22;24829;49.208;12.080;2022-10-30T07:09:20;11.30;99.90
39079;DHT22;24829;49.208;12.080;2022-10-30T07:11:46;11.40;99.90
39079;DHT22;24829;49.208;12.080;2022-10-30T07:14:11;11.40;99.90
39079;DHT22;24829;49.208;12.080;2022-10-30T07:16:37;11.50;99.90
39079;DHT22;24829;49.208;12.080;2022-10-30T07:19:02;11.50;99.90
39079;DHT22;24829;49.208;12.080;2022-10-30T07:21:28;11.60;99.90
39079;DHT22;24829;49.208;12.080;2022-10-30T07:23:54;11.60;99.90
39079;DHT22;24829;49.208;12.080;2022-10-30T07:26:19;11.70;99.90
39079;DHT22;24829;49.208;12.080;2022-10-30T07:28:45;11.70;99.90
39079;DHT22;24829;49.208;12.080;2022-10-30T07:31:10;11.80;99.90
39079;DHT22;24829;49.208;12.080;2022-10-30T07:33:36;11.80;99.90
39079;DHT22;24829;49.208;12.080;2022-10-30T07:36:02;11.80;99.90
39079;DHT22;24829;49.208;12.080;2022-10-30T07:38:27;11.90;99.90
39079;DHT22;24829;49.208;12.080;2022-10-30T07:40:53;11.90;99.90
39079;DHT22;24829;49.208;12.080;2022-10-30T07:43:18;11.90;99.90
39079;DHT22;24829;49.208;12.080;2022-10-30T07:45:45;12.00;99.90
39079;DHT22;24829;49.208;12.080;2022-10-30T07:48:10;12.00;99.90
39079;DHT22;24829;49.208;12.080;2022-10-30T07:50:36;12.10;99.90
39079;DHT22;24829;49.208;12.080;2022-10-30T07:53:02;12.10;99.90
39079;DHT22;24829;49.208;12.080;2022-10-30T07:55:27;12.20;99.90
39079;DHT22;24829;49.208;12.080;2022-10-30T07:57:53;12.30;99.90
39079;DHT22;24829;49.208;12.080;2022-10-30T08:00:19;12.30;99.90
39079;DHT22;24829;49.208;12.080;2022-10-30T08:02:48;12.40;99.90
39079;DHT22;24829;49.208;12.080;2022-10-30T08:05:14;12.50;99.90
39079;DHT22;24829;49.208;12.080;2022-10-30T08:07:39;12.60;99.90
39079;DHT22;24829;49.208;12.080;2022-10-30T08:10:06;12.60;99.90
39079;DHT22;24829;49.208;12.080;2022-10-30T08:12:32;12.70;99.90
39079;DHT22;24829;49.208;12.080;2022-10-30T08:14:58;12.70;99.90
39079;DHT22;24829;49.208;12.080;2022-10-30T08:17:24;12.70;99.90
39079;DHT22;24829;49.208;12.080;2022-10-30T08:19:49;12.80;99.90
39079;DHT22;24829;49.208;12.080;2022-10-30T08:22:15;12.80;99.90
39079;DHT22;24829;49.208;12.080;2022-10-30T08:24:41;12.90;99.90
39079;DHT22;24829;49.208;12.080;2022-10-30T08:27:06;12.90;99.90
39079;DHT22;24829;49.208;12.080;2022-10-30T08:29:32;12.80;99.90
39079;DHT22;24829;49.208;12.080;2022-10-30T08:31:59;12.80;99.90
39079;DHT22;24829;49.208;12.080;2022-10-30T08:34:25;12.80;99.90
39079;DHT22;24829;49.208;12.080;2022-10-30T08:36:56;12.80;99.90
39079;DHT22;24829;49.208;12.080;2022-10-30T08:39:22;12.80;99.90
39079;DHT22;24829;49.208;12.080;2022-10-30T08:41:47;12.80;99.90
39079;DHT22;24829;49.208;12.080;2022-10-30T08:44:13;12.80;99.90
39079;DHT22;24829;49.208;12.080;2022-10-30T08:46:39;12.90;99.90
39079;DHT22;24829;49.208;12.080;2022-10-30T08:49:04;12.90;99.90
39079;DHT22;24829;49.208;12.080;2022-10-30T08:51:34;13.00;99.90
39079;DHT22;24829;49.208;12.080;2022-10-30T08:54:00;13.10;99.90
39079;DHT22;24829;49.208;12.080;2022-10-30T08:56:26;13.20;99.90
39079;DHT22;24829;49.208;12.080;2022-10-30T08:58:55;13.40;99.90
39079;DHT22;24829;49.208;12.080;2022-10-30T09:01:21;13.50;99.90
39079;DHT22;24829;49.208;12.080;2022-10-30T09:03:47;13.60;99.90
39079;DHT22;24829;49.208;12.080;2022-10-30T09:06:13;13.60;99.90
39079;DHT22;24829;49.208;12.080;2022-10-30T09:08:39;13.70;99.90
39079;DHT22;24829;49.208;12.080;2022-10-30T09:11:05;13.80;99.90
39079;DHT22;24829;49.208;12.080;2022-10-30T09:13:31;13.90;99.90
39079;DHT22;24829;49.208;12.080;2022-10-30T09:16:01;13.90;99.90
39079;DHT22;24829;49.208;12.080;2022-10-30T09:18:27;14.00;99.90
39079;DHT22;24829;49.208;12.080;2022-10-30T09:20:53;14.00;99.90
39079;DHT22;24829;49.208;12.080;2022-10-30T09:23:19;14.00;99.90
39079;DHT22;24829;49.208;12.080;2022-10-30T09:25:45;14.10;99.90
39079;DHT22;24829;49.208;12.080;2022-10-30T09:28:11;14.10;99.90
39079;DHT22;24829;49.208;12.080;2022-10-30T09:30:37;14.10;99.90
39079;DHT22;24829;49.208;12.080;2022-10-30T09:33:03;14.20;99.90
39079;DHT22;24829;49.208;12.080;2022-10-30T09:35:29;14.30;99.90
39079;DHT22;24829;49.208;12.080;2022-10-30T09:37:55;14.40;99.90
39079;DHT22;24829;49.208;12.080;2022-10-30T09:43:25;14.60;99.90
39079;DHT22;24829;49.208;12.080;2022-10-30T09:48:43;14.80;99.90
39079;DHT22;24829;49.208;12.080;2022-10-30T10:05:42;15.60;99.90
39079;DHT22;24829;49.208;12.080;2022-10-30T10:08:26;15.70;99.90
39079;DHT22;24829;49.208;12.080;2022-10-30T10:11:07;15.70;99.90
39079;DHT22;24829;49.208;12.080;2022-10-30T10:16:19;15.80;99.90
39079;DHT22;24829;49.208;12.080;2022-10-30T10:18:59;16.00;99.90
39079;DHT22;24829;49.208;12.080;2022-10-30T10:21:28;16.00;99.90
39079;DHT22;24829;49.208;12.080;2022-10-30T10:23:58;16.10;99.90
39079;DHT22;24829;49.208;12.080;2022-10-30T10:26:26;16.10;99.90
39079;DHT22;24829;49.208;12.080;2022-10-30T10:31:45;16.20;99.90
39079;DHT22;24829;49.208;12.080;2022-10-30T10:43:00;16.50;99.90
39079;DHT22;24829;49.208;12.080;2022-10-30T10:45:54;16.60;99.90
39079;DHT22;24829;49.208;12.080;2022-10-30T10:49:04;16.70;99.90
39079;DHT22;24829;49.208;12.080;2022-10-30T10:51:38;16.80;99.90
39079;DHT22;24829;49.208;12.080;2022-10-30T10:54:15;16.90;99.90
39079;DHT22;24829;49.208;12.080;2022-10-30T10:56:45;16.90;99.90
39079;DHT22;24829;49.208;12.080;2022-10-30T10:59:32;16.90;99.90
39079;DHT22;24829;49.208;12.080;2022-10-30T11:05:01;17.00;99.90
39079;DHT22;24829;49.208;12.080;2022-10-30T11:07:34;17.10;99.90
39079;DHT22;24829;49.208;12.080;2022-10-30T11:10:12;17.10;99.90
39079;DHT22;24829;49.208;12.080;2022-10-30T11:12:41;17.10;99.90
39079;DHT22;24829;49.208;12.080;2022-10-30T11:15:23;17.10;99.90
39079;DHT22;24829;49.208;12.080;2022-10-30T11:17:53;17.10;99.90
39079;DHT22;24829;49.208;12.080;2022-10-30T11:20:35;17.10;99.90
39079;DHT22;24829;49.208;12.080;2022-10-30T11:23:41;17.20;99.90
39079;DHT22;24829;49.208;12.080;2022-10-30T11:29:04;17.20;99.90
39079;DHT22;24829;49.208;12.080;2022-10-30T11:31:41;17.30;99.90
39079;DHT22;24829;49.208;12.080;2022-10-30T11:36:49;17.40;99.90
39079;DHT22;24829;49.208;12.080;2022-10-30T11:39:27;17.40;99.90
39079;DHT22;24829;49.208;12.080;2022-10-30T11:41:55;17.40;99.90
39079;DHT22;24829;49.208;12.080;2022-10-30T11:44:28;17.40;99.90
39079;DHT22;24829;49.208;12.080;2022-10-30T11:46:56;17.40;99.90
39079;DHT22;24829;49.208;12.080;2022-10-30T11:49:29;17.40;99.90
39079;DHT22;24829;49.208;12.080;2022-10-30T11:51:56;17.50;99.90
39079;DHT22;24829;49.208;12.080;2022-10-30T11:54:23;17.50;99.90
39079;DHT22;24829;49.208;12.080;2022-10-30T11:56:49;17.50;99.90
39079;DHT22;24829;49.208;12.080;2022-10-30T11:59:19;17.60;99.90
39079;DHT22;24829;49.208;12.080;2022-10-30T12:02:24;17.60;99.90
39079;DHT22;24829;49.208;12.080;2022-10-30T12:05:00;17.60;99.90
39079;DHT22;24829;49.208;12.080;2022-10-30T12:07:32;17.70;99.90
39079;DHT22;24829;49.208;12.080;2022-10-30T12:10:01;17.80;99.90
39079;DHT22;24829;49.208;12.080;2022-10-30T12:12:32;17.80;99.90
39079;DHT22;24829;49.208;12.080;2022-10-30T12:15:26;17.80;99.90
39079;DHT22;24829;49.208;12.080;2022-10-30T12:17:54;17.80;99.90
39079;DHT22;24829;49.208;12.080;2022-10-30T12:20:23;17.80;99.90
39079;DHT22;24829;49.208;12.080;2022-10-30T12:22:52;17.80;99.90
39079;DHT22;24829;49.208;12.080;2022-10-30T12:25:29;17.90;99.90
39079;DHT22;24829;49.208;12.080;2022-10-30T12:28:06;17.90;99.90
39079;DHT22;24829;49.208;12.080;2022-10-30T12:30:40;17.90;99.90
39079;DHT22;24829;49.208;12.080;2022-10-30T12:33:14;17.90;99.90
39079;DHT22;24829;49.208;12.080;2022-10-30T12:35:52;18.00;99.90
39079;DHT22;24829;49.208;12.080;2022-10-30T12:38:57;18.00;99.90
39079;DHT22;24829;49.208;12.080;2022-10-30T12:41:45;18.10;99.90
39079;DHT22;24829;49.208;12.080;2022-10-30T12:44:21;18.10;99.90
39079;DHT22;24829;49.208;12.080;2022-10-30T12:46:55;18.10;99.90
39079;DHT22;24829;49.208;12.080;2022-10-30T12:57:30;18.10;99.90
39079;DHT22;24829;49.208;12.080;2022-10-30T13:02:44;18.20;99.90
39079;DHT22;24829;49.208;12.080;2022-10-30T13:13:45;18.20;99.90
39079;DHT22;24829;49.208;12.080;2022-10-30T13:16:20;18.20;99.90
39079;DHT22;24829;49.208;12.080;2022-10-30T13:18:47;18.30;99.90
39079;DHT22;24829;49.208;12.080;2022-10-30T13:21:14;18.30;99.90
39079;DHT22;24829;49.208;12.080;2022-10-30T13:23:55;18.40;99.90
39079;DHT22;24829;49.208;12.080;2022-10-30T13:26:38;18.40;99.90
39079;DHT22;24829;49.208;12.080;2022-10-30T13:40:51;18.40;99.90
39079;DHT22;24829;49.208;12.080;2022-10-30T13:43:40;18.40;99.90
39079;DHT22;24829;49.208;12.080;2022-10-30T13:46:20;18.40;99.90
39079;DHT22;24829;49.208;12.080;2022-10-30T13:48:57;18.50;99.90
39079;DHT22;24829;49.208;12.080;2022-10-30T13:54:06;18.40;99.90
39079;DHT22;24829;49.208;12.080;2022-10-30T13:56:33;18.30;99.90
39079;DHT22;24829;49.208;12.080;2022-10-30T14:02:00;18.20;99.90
39079;DHT22;24829;49.208;12.080;2022-10-30T14:04:42;18.10;99.90
39079;DHT22;24829;49.208;12.080;2022-10-30T14:15:41;18.00;99.90
39079;DHT22;24829;49.208;12.080;2022-10-30T14:20:47;17.90;99.90
39079;DHT22;24829;49.208;12.080;2022-10-30T14:23:34;17.80;99.90
39079;DHT22;24829;49.208;12.080;2022-10-30T14:28:32;17.70;99.90
39079;DHT22;24829;49.208;12.080;2022-10-30T14:31:03;17.70;99.90
39079;DHT22;24829;49.208;12.080;2022-10-30T14:36:13;17.60;99.90
39079;DHT22;24829;49.208;12.080;2022-10-30T14:38:39;17.60;99.90
39079;DHT22;24829;49.208;12.080;2022-10-30T14:41:16;17.50;99.90
39079;DHT22;24829;49.208;12.080;2022-10-30T14:44:04;17.50;99.90
39079;DHT22;24829;49.208;12.080;2022-10-30T14:49:44;17.40;99.90
39079;DHT22;24829;49.208;12.080;2022-10-30T14:52:35;17.40;99.90
39079;DHT22;24829;49.208;12.080;2022-10-30T14:57:53;17.30;99.90
39079;DHT22;24829;49.208;12.080;2022-10-30T15:05:53;17.10;99.90
39079;DHT22;24829;49.208;12.080;2022-10-30T15:09:02;17.00;99.90
39079;DHT22;24829;49.208;12.080;2022-10-30T15:14:35;16.90;99.90
39079;DHT22;24829;49.208;12.080;2022-10-30T15:17:01;16.80;99.90
39079;DHT22;24829;49.208;12.080;2022-10-30T15:19:28;16.70;99.90
39079;DHT22;24829;49.208;12.080;2022-10-30T15:21:56;16.60;99.90
39079;DHT22;24829;49.208;12.080;2022-10-30T15:24:24;16.60;99.90
39079;DHT22;24829;49.208;12.080;2022-10-30T15:26:53;16.50;99.90
39079;DHT22;24829;49.208;12.080;2022-10-30T15:29:34;16.40;99.90
39079;DHT22;24829;49.208;12.080;2022-10-30T15:32:03;16.30;99.90
39079;DHT22;24829;49.208;12.080;2022-10-30T15:34:31;16.30;99.90
39079;DHT22;24829;49.208;12.080;2022-10-30T15:36:57;16.20;99.90
39079;DHT22;24829;49.208;12.080;2022-10-30T15:39:23;16.10;99.90
39079;DHT22;24829;49.208;12.080;2022-10-30T15:41:55;16.00;99.90
39079;DHT22;24829;49.208;12.080;2022-10-30T15:44:22;15.90;99.90
39079;DHT22;24829;49.208;12.080;2022-10-30T15:46:53;15.90;99.90
39079;DHT22;24829;49.208;12.080;2022-10-30T15:51:51;15.70;99.90
39079;DHT22;24829;49.208;12.080;2022-10-30T15:54:18;15.60;99.90
39079;DHT22;24829;49.208;12.080;2022-10-30T15:56:47;15.60;99.90
39079;DHT22;24829;49.208;12.080;2022-10-30T15:59:23;15.50;99.90
39079;DHT22;24829;49.208;12.080;2022-10-30T16:01:53;15.40;99.90
39079;DHT22;24829;49.208;12.080;2022-10-30T16:04:22;15.30;99.90
39079;DHT22;24829;49.208;12.080;2022-10-30T16:06:53;15.20;99.90
39079;DHT22;24829;49.208;12.080;2022-10-30T16:09:20;15.20;99.90
39079;DHT22;24829;49.208;12.080;2022-10-30T16:11:46;15.10;99.90
39079;DHT22;24829;49.208;12.080;2022-10-30T16:14:15;15.10;99.90
39079;DHT22;24829;49.208;12.080;2022-10-30T16:16:43;15.00;99.90
39079;DHT22;24829;49.208;12.080;2022-10-30T16:19:25;15.00;99.90
39079;DHT22;24829;49.208;12.080;2022-10-30T16:21:52;14.90;99.90
39079;DHT22;24829;49.208;12.080;2022-10-30T16:24:22;14.80;99.90
39079;DHT22;24829;49.208;12.080;2022-10-30T16:27:04;14.80;99.90
39079;DHT22;24829;49.208;12.080;2022-10-30T16:29:31;14.70;99.90
39079;DHT22;24829;49.208;12.080;2022-10-30T16:31:58;14.70;99.90
39079;DHT22;24829;49.208;12.080;2022-10-30T16:34:27;14.60;99.90
39079;DHT22;24829;49.208;12.080;2022-10-30T16:36:56;14.60;99.90
39079;DHT22;24829;49.208;12.080;2022-10-30T16:39:23;14.50;99.90
39079;DHT22;24829;49.208;12.080;2022-10-30T16:41:50;14.50;99.90
39079;DHT22;24829;49.208;12.080;2022-10-30T16:44:28;14.50;99.90
39079;DHT22;24829;49.208;12.080;2022-10-30T16:47:23;14.50;99.90
39079;DHT22;24829;49.208;12.080;2022-10-30T16:49:53;14.40;99.90
39079;DHT22;24829;49.208;12.080;2022-10-30T16:52:24;14.40;99.90
39079;DHT22;24829;49.208;12.080;2022-10-30T16:55:03;14.40;99.90
39079;DHT22;24829;49.208;12.080;2022-10-30T16:57:36;14.40;99.90
39079;DHT22;24829;49.208;12.080;2022-10-30T17:00:04;14.40;99.90
39079;DHT22;24829;49.208;12.080;2022-10-30T17:02:34;14.40;99.90
39079;DHT22;24829;49.208;12.080;2022-10-30T17:05:33;14.40;99.90
39079;DHT22;24829;49.208;12.080;2022-10-30T17:13:31;14.50;99.90
39079;DHT22;24829;49.208;12.080;2022-10-30T17:16:15;14.40;99.90
39079;DHT22;24829;49.208;12.080;2022-10-30T17:18:41;14.40;99.90
39079;DHT22;24829;49.208;12.080;2022-10-30T17:21:11;14.40;99.90
39079;DHT22;24829;49.208;12.080;2022-10-30T17:23:49;14.40;99.90
39079;DHT22;24829;49.208;12.080;2022-10-30T17:26:16;14.40;99.90
39079;DHT22;24829;49.208;12.080;2022-10-30T17:28:42;14.30;99.90
39079;DHT22;24829;49.208;12.080;2022-10-30T17:31:32;14.30;99.90
39079;DHT22;24829;49.208;12.080;2022-10-30T17:34:19;14.20;99.90
39079;DHT22;24829;49.208;12.080;2022-10-30T17:36:46;14.20;99.90
39079;DHT22;24829;49.208;12.080;2022-10-30T17:39:12;14.20;99.90
39079;DHT22;24829;49.208;12.080;2022-10-30T17:41:38;14.20;99.90
39079;DHT22;24829;49.208;12.080;2022-10-30T17:44:05;14.20;99.90
39079;DHT22;24829;49.208;12.080;2022-10-30T17:46:31;14.20;99.90
39079;DHT22;24829;49.208;12.080;2022-10-30T17:48:57;14.20;99.90
39079;DHT22;24829;49.208;12.080;2022-10-30T17:51:24;14.20;99.90